Time;durP1;ratioP1;P1;durP2;ratioP2;P2;SDS_P1;SDS_P2;PMS_P1;PMS_P2;Temp;Humidity;BMP_temperature;BMP_pressure;BME280_temperature;BME280_humidity;BME280_pressure;Samples;Min_cycle;Max_cycle;Signal;HPM_P1;HPM_P2
2023/06/04 00:00:42;;;;;;;;;3.50;3.50;;;;;10.84;46.86;100343.91;5098682;28;8849;-61
2023/06/04 00:03:09;;;;;;;;;4.00;4.00;;;;;10.81;47.14;100344.16;5098867;28;8881;-59
2023/06/04 00:05:37;;;;;;;;;3.00;3.00;;;;;10.78;47.34;100339.03;5099076;28;8814;-61
2023/06/04 00:08:07;;;;;;;;;5.75;4.50;;;;;10.73;47.25;100335.88;5099628;28;8836;-59
2023/06/04 00:10:34;;;;;;;;;4.00;3.50;;;;;10.67;47.33;100336.34;5099392;28;8829;-59
2023/06/04 00:13:02;;;;;;;;;3.00;3.00;;;;;10.64;47.93;100330.38;5098752;28;8969;-61
2023/06/04 00:15:30;;;;;;;;;3.00;3.00;;;;;10.58;47.30;100338.81;5098281;28;8825;-61
2023/06/04 00:17:57;;;;;;;;;4.00;4.00;;;;;10.55;47.74;100331.91;5098794;28;8826;-61
2023/06/04 00:20:26;;;;;;;;;3.00;1.00;;;;;10.53;47.40;100333.84;5098141;28;8841;-62
2023/06/04 00:22:54;;;;;;;;;3.25;3.25;;;;;10.48;47.82;100329.81;5098403;28;9010;-61
2023/06/04 00:25:21;;;;;;;;;3.00;3.00;;;;;10.49;47.66;100337.69;5098797;28;8944;-60
2023/06/04 00:27:49;;;;;;;;;4.00;3.25;;;;;10.47;48.09;100333.44;5097803;28;8910;-61
2023/06/04 00:30:18;;;;;;;;;5.00;3.00;;;;;10.45;47.44;100338.88;5096534;28;8841;-61
2023/06/04 00:32:46;;;;;;;;;1.00;1.00;;;;;10.43;47.56;100342.59;5097173;28;9488;-61
2023/06/04 00:35:14;;;;;;;;;4.00;3.75;;;;;10.41;48.17;100332.06;5098253;28;8842;-61
2023/06/04 00:37:42;;;;;;;;;3.00;3.00;;;;;10.41;47.91;100334.72;5098255;28;8964;-60
2023/06/04 00:40:10;;;;;;;;;4.00;4.00;;;;;10.41;48.06;100333.88;5098339;28;8944;-62
2023/06/04 00:42:38;;;;;;;;;3.00;3.00;;;;;10.37;47.88;100333.25;5098432;28;8948;-60
2023/06/04 00:45:07;;;;;;;;;2.50;2.50;;;;;10.36;48.09;100331.56;5098350;28;8810;-58
2023/06/04 00:47:35;;;;;;;;;2.50;1.00;;;;;10.32;48.17;100338.03;5098470;28;8842;-59
2023/06/04 00:50:03;;;;;;;;;2.00;2.00;;;;;10.29;48.63;100342.75;5098476;28;8830;-60
2023/06/04 00:52:31;;;;;;;;;2.50;2.50;;;;;10.20;48.56;100336.28;5098777;28;8937;-59
2023/06/04 00:54:58;;;;;;;;;4.00;4.00;;;;;10.14;48.76;100338.50;5098515;28;9590;-60
2023/06/04 00:57:27;;;;;;;;;6.00;6.00;;;;;10.07;48.77;100340.78;5098736;28;8830;-61
2023/06/04 00:59:54;;;;;;;;;3.25;3.00;;;;;10.03;48.99;100338.44;5098533;28;8833;-61
2023/06/04 01:02:22;;;;;;;;;3.25;3.25;;;;;9.98;49.09;100338.75;5098432;28;8865;-60
2023/06/04 01:04:50;;;;;;;;;3.00;1.00;;;;;9.96;49.04;100340.63;5098199;28;8840;-60
2023/06/04 01:07:18;;;;;;;;;2.50;2.00;;;;;9.94;48.99;100347.88;5098190;28;8830;-61
2023/06/04 01:09:46;;;;;;;;;1.00;1.00;;;;;9.93;49.08;100348.00;5097957;28;8948;-61
2023/06/04 01:12:14;;;;;;;;;1.00;1.00;;;;;9.90;49.17;100351.72;5098714;28;9483;-60
2023/06/04 01:14:42;;;;;;;;;4.00;4.00;;;;;9.85;49.23;100345.88;5098626;28;8948;-61
2023/06/04 01:17:10;;;;;;;;;2.50;2.50;;;;;9.80;49.48;100353.31;5098180;28;8822;-61
2023/06/04 01:19:40;;;;;;;;;1.00;0.00;;;;;9.74;49.35;100348.44;5098294;28;8896;-60
2023/06/04 01:22:09;;;;;;;;;1.00;1.00;;;;;9.71;49.57;100347.81;5098176;28;8828;-60
2023/06/04 01:24:37;;;;;;;;;3.00;2.00;;;;;9.69;50.31;100347.03;5097810;28;8802;-61
2023/06/04 01:27:05;;;;;;;;;3.00;3.00;;;;;9.62;49.81;100349.28;5098112;28;8830;-61
2023/06/04 01:29:36;;;;;;;;;1.50;1.50;;;;;9.51;50.13;100343.88;5098110;28;8832;-59
2023/06/04 01:32:03;;;;;;;;;4.25;3.00;;;;;9.42;50.44;100347.13;5097964;28;8841;-59
2023/06/04 01:34:31;;;;;;;;;3.00;3.00;;;;;9.34;50.37;100349.47;5097981;28;8838;-61
2023/06/04 01:37:00;;;;;;;;;3.00;3.00;;;;;9.28;50.64;100346.41;5097796;28;8864;-61
2023/06/04 01:39:27;;;;;;;;;3.40;3.40;;;;;9.25;50.49;100343.91;5097732;28;8840;-61
2023/06/04 01:41:55;;;;;;;;;3.20;3.20;;;;;9.23;50.62;100345.84;5097670;28;8833;-61
2023/06/04 01:44:23;;;;;;;;;1.40;1.00;;;;;9.23;50.54;100351.16;5097681;28;8822;-61
2023/06/04 01:46:50;;;;;;;;;2.60;2.60;;;;;9.24;50.53;100347.53;5097876;28;8841;-61
2023/06/04 01:49:18;;;;;;;;;3.40;3.40;;;;;9.23;50.66;100354.69;5097522;28;8846;-60
2023/06/04 01:51:46;;;;;;;;;3.50;3.50;;;;;9.23;50.58;100345.84;5097339;28;8867;-61
2023/06/04 01:54:14;;;;;;;;;3.00;3.00;;;;;9.23;50.59;100349.38;5097411;28;8826;-61
2023/06/04 01:56:41;;;;;;;;;4.00;3.40;;;;;9.22;50.87;100347.66;5097461;28;8818;-61
2023/06/04 01:59:11;;;;;;;;;3.20;3.20;;;;;9.21;50.59;100348.63;5097629;28;8960;-61
2023/06/04 02:01:39;;;;;;;;;3.20;3.20;;;;;9.16;50.97;100345.41;5097359;28;8818;-61
2023/06/04 02:04:07;;;;;;;;;4.00;3.40;;;;;9.12;50.46;100348.38;5097759;28;8842;-62
2023/06/04 02:06:36;;;;;;;;;0.00;0.00;;;;;9.06;50.98;100346.13;5097482;28;8826;-61
2023/06/04 02:09:04;;;;;;;;;1.00;1.00;;;;;8.99;51.04;100356.31;5097474;28;8953;-61
2023/06/04 02:11:32;;;;;;;;;3.00;3.00;;;;;8.90;51.08;100348.94;5097394;28;8834;-61
2023/06/04 02:14:00;;;;;;;;;0.80;0.80;;;;;8.81;51.58;100354.03;5097285;28;8945;-60
2023/06/04 02:16:28;;;;;;;;;3.00;3.00;;;;;8.76;51.63;100350.81;5097055;28;8948;-61
2023/06/04 02:18:55;;;;;;;;;2.80;2.20;;;;;8.70;51.62;100352.09;5096885;28;8898;-61
2023/06/04 02:21:23;;;;;;;;;3.60;2.20;;;;;8.66;51.50;100350.56;5096575;28;8936;-62
2023/06/04 02:23:52;;;;;;;;;3.00;3.00;;;;;8.61;51.63;100355.34;5097097;28;9650;-60
2023/06/04 02:26:19;;;;;;;;;3.80;3.80;;;;;8.58;52.18;100357.34;5096921;28;8821;-61
2023/06/04 02:28:47;;;;;;;;;3.00;3.00;;;;;8.54;51.92;100354.03;5096922;28;8944;-61
2023/06/04 02:31:15;;;;;;;;;1.00;1.00;;;;;8.47;52.32;100360.69;5096900;28;8915;-61
2023/06/04 02:33:43;;;;;;;;;3.40;2.60;;;;;8.43;52.42;100351.19;5096879;28;8912;-61
2023/06/04 02:36:12;;;;;;;;;1.80;1.40;;;;;8.37;52.23;100348.94;5096512;28;8898;-61
2023/06/04 02:38:39;;;;;;;;;3.00;1.80;;;;;8.34;52.35;100356.25;5096607;28;8826;-61
2023/06/04 02:41:07;;;;;;;;;3.80;3.80;;;;;8.33;52.71;100355.41;5096480;28;8852;-61
2023/06/04 02:43:36;;;;;;;;;2.20;2.20;;;;;8.32;52.15;100352.84;5096627;28;8833;-61
2023/06/04 02:46:03;;;;;;;;;3.20;3.00;;;;;8.30;52.54;100352.09;5096556;28;8822;-61
2023/06/04 02:48:31;;;;;;;;;2.20;2.20;;;;;8.29;52.44;100353.88;5096994;28;8842;-62
2023/06/04 02:50:59;;;;;;;;;1.00;1.00;;;;;8.27;52.44;100347.84;5096008;28;8921;-61
2023/06/04 02:53:27;;;;;;;;;3.00;3.00;;;;;8.26;52.49;100351.44;5096445;28;8821;-61
2023/06/04 02:55:55;;;;;;;;;3.40;3.00;;;;;8.25;52.24;100356.84;5096518;28;8841;-60
2023/06/04 02:58:24;;;;;;;;;3.80;3.20;;;;;8.23;52.60;100362.25;5096587;28;9483;-60
2023/06/04 03:00:52;;;;;;;;;3.00;3.00;;;;;8.22;52.48;100359.69;5096235;28;8814;-60
2023/06/04 03:03:20;;;;;;;;;1.80;1.00;;;;;8.18;52.43;100358.13;5095927;28;8949;-61
2023/06/04 03:05:48;;;;;;;;;1.00;1.00;;;;;8.14;52.73;100365.44;5095757;28;8838;-60
2023/06/04 03:08:15;;;;;;;;;3.00;3.00;;;;;8.10;52.62;100352.47;5096040;28;8810;-61
2023/06/04 03:10:43;;;;;;;;;3.00;2.60;;;;;8.05;52.81;100355.41;5095843;28;8830;-61
2023/06/04 03:13:11;;;;;;;;;0.80;0.80;;;;;8.03;52.91;100356.44;5096037;28;8964;-62
2023/06/04 03:15:39;;;;;;;;;0.20;0.20;;;;;8.00;52.58;100359.31;5096056;28;9766;-60
2023/06/04 03:18:07;;;;;;;;;7.00;3.40;;;;;7.96;53.05;100361.28;5095970;28;8841;-61
2023/06/04 03:20:38;;;;;;;;;3.00;1.40;;;;;7.93;53.00;100355.31;5095903;28;8830;-61
2023/06/04 03:23:06;;;;;;;;;1.00;1.00;;;;;7.89;53.16;100359.97;5095992;28;8907;-60
2023/06/04 03:25:34;;;;;;;;;3.60;3.00;;;;;7.87;53.34;100364.53;5095602;28;8972;-62
2023/06/04 03:28:02;;;;;;;;;3.00;3.00;;;;;7.87;53.21;100364.53;5096427;28;9512;-60
2023/06/04 03:30:29;;;;;;;;;1.00;1.00;;;;;7.88;53.00;100360.06;5096581;28;9610;-61
2023/06/04 03:32:57;;;;;;;;;1.00;1.00;;;;;7.88;52.96;100360.91;5096323;28;8834;-61
2023/06/04 03:35:25;;;;;;;;;3.00;1.80;;;;;7.90;53.25;100361.66;5096128;28;8822;-60
2023/06/04 03:37:53;;;;;;;;;4.00;4.00;;;;;7.93;52.98;100369.44;5096392;28;8857;-61
2023/06/04 03:40:20;;;;;;;;;1.80;1.80;;;;;7.95;52.61;100366.69;5096070;28;8952;-60
2023/06/04 03:42:48;;;;;;;;;2.20;1.00;;;;;7.95;53.07;100369.34;5095967;28;8952;-61
2023/06/04 03:45:16;;;;;;;;;1.00;1.00;;;;;7.94;53.09;100363.19;5096123;28;8883;-61
2023/06/04 03:47:43;;;;;;;;;3.00;3.00;;;;;7.94;53.21;100364.97;5095742;28;8822;-61
2023/06/04 03:50:14;;;;;;;;;3.00;2.20;;;;;7.94;53.04;100365.84;5095913;28;8888;-60
2023/06/04 03:52:41;;;;;;;;;3.40;3.40;;;;;7.96;53.41;100369.25;5095451;28;8825;-60
2023/06/04 03:55:10;;;;;;;;;0.60;0.60;;;;;7.97;53.46;100376.25;5096202;28;9529;-61
2023/06/04 03:57:39;;;;;;;;;1.40;1.40;;;;;7.99;53.11;100371.69;5095767;28;8840;-60
2023/06/04 04:00:06;;;;;;;;;2.20;1.00;;;;;8.03;53.01;100370.56;5096109;28;8844;-61
2023/06/04 04:02:35;;;;;;;;;1.40;1.40;;;;;8.07;53.38;100377.38;5095804;28;8890;-61
2023/06/04 04:05:03;;;;;;;;;2.20;2.20;;;;;8.13;53.13;100379.66;5095717;28;8862;-61
2023/06/04 04:07:30;;;;;;;;;1.00;1.00;;;;;8.20;53.00;100372.22;5095635;28;9595;-61
2023/06/04 04:09:58;;;;;;;;;1.80;1.00;;;;;8.28;53.14;100378.72;5095724;28;8906;-61
2023/06/04 04:12:26;;;;;;;;;1.40;1.40;;;;;8.37;52.80;100378.13;5095819;28;8830;-61
2023/06/04 04:14:54;;;;;;;;;1.00;1.00;;;;;8.46;52.02;100371.38;5095317;28;8890;-59
2023/06/04 04:17:22;;;;;;;;;1.40;1.40;;;;;8.54;52.42;100377.94;5095830;28;9531;-61
2023/06/04 04:19:50;;;;;;;;;1.00;1.00;;;;;8.64;52.09;100371.06;5095359;28;8964;-59
2023/06/04 04:22:18;;;;;;;;;5.60;5.60;;;;;8.75;51.96;100371.19;5094606;28;8826;-61
2023/06/04 04:24:45;;;;;;;;;6.00;4.40;;;;;8.85;52.01;100369.66;5097717;28;8805;-60
2023/06/04 04:27:15;;;;;;;;;12.40;9.60;;;;;8.97;51.44;100362.69;5099537;28;8818;-61
2023/06/04 04:29:44;;;;;;;;;11.80;10.80;;;;;9.06;51.51;100360.28;5099083;28;8834;-61
2023/06/04 04:32:12;;;;;;;;;7.00;6.00;;;;;9.13;51.41;100358.88;5099042;28;8854;-59
2023/06/04 04:34:39;;;;;;;;;8.20;7.80;;;;;9.20;51.71;100368.16;5098697;28;8822;-60
2023/06/04 04:37:08;;;;;;;;;6.60;6.60;;;;;9.28;51.17;100359.69;5099156;28;8830;-61
2023/06/04 04:39:35;;;;;;;;;10.40;9.40;;;;;9.36;51.45;100363.53;5099091;28;8822;-61
2023/06/04 04:42:03;;;;;;;;;18.60;15.00;;;;;9.46;51.24;100361.94;5098719;28;8869;-61
2023/06/04 04:44:31;;;;;;;;;12.20;10.40;;;;;9.56;51.04;100365.66;5099150;28;8956;-60
2023/06/04 04:46:58;;;;;;;;;9.00;7.40;;;;;9.63;50.69;100356.31;5098651;28;8826;-61
2023/06/04 04:49:26;;;;;;;;;6.20;3.80;;;;;9.69;51.06;100370.97;5098539;28;8846;-61
2023/06/04 04:51:54;;;;;;;;;4.80;4.80;;;;;9.75;50.44;100370.56;5098865;28;8964;-61
2023/06/04 04:54:22;;;;;;;;;3.00;3.00;;;;;9.85;50.72;100372.47;5098874;28;8810;-61
2023/06/04 04:56:50;;;;;;;;;3.25;3.00;;;;;9.94;50.98;100363.84;5098838;28;8960;-60
2023/06/04 04:59:37;;;;;;;;;4.00;4.00;;;;;10.00;50.66;100363.41;5098735;28;8861;-60
2023/06/04 05:02:05;;;;;;;;;6.00;6.00;;;;;10.08;50.50;100363.75;5098371;28;8849;-60
2023/06/04 05:04:33;;;;;;;;;4.00;3.50;;;;;10.19;50.45;100355.88;5098619;28;8862;-61
2023/06/04 05:07:01;;;;;;;;;4.33;4.33;;;;;10.32;50.75;100353.19;5098435;28;8915;-61
2023/06/04 05:09:29;;;;;;;;;3.50;3.50;;;;;10.40;50.03;100351.66;5098442;28;8856;-61
2023/06/04 05:11:57;;;;;;;;;3.50;3.50;;;;;10.53;50.15;100359.59;5098307;28;8828;-61
2023/06/04 05:14:25;;;;;;;;;2.00;2.00;;;;;10.63;50.19;100358.81;5098650;28;8948;-60
2023/06/04 05:16:53;;;;;;;;;4.00;4.00;;;;;10.73;49.88;100361.66;5098318;28;8814;-62
2023/06/04 05:19:20;;;;;;;;;7.00;6.00;;;;;10.80;49.81;100358.44;5098245;28;8814;-60
2023/06/04 05:21:48;;;;;;;;;1.00;0.00;;;;;10.89;49.89;100355.09;5097654;28;8939;-62
2023/06/04 05:24:16;;;;;;;;;7.00;6.00;;;;;11.02;49.56;100363.88;5078049;28;8816;-60
2023/06/04 05:26:44;;;;;;;;;4.50;4.50;;;;;11.16;49.21;100365.50;5077936;28;8815;-60
2023/06/04 05:29:11;;;;;;;;;7.25;6.75;;;;;11.30;49.64;100366.16;5077506;28;8847;-61
2023/06/04 05:31:39;;;;;;;;;7.75;6.00;;;;;11.48;49.24;100369.25;5077600;28;8824;-60
2023/06/04 05:34:08;;;;;;;;;4.50;4.00;;;;;11.67;49.02;100359.75;5077480;28;8879;-60
2023/06/04 05:36:36;;;;;;;;;6.25;5.50;;;;;11.88;48.95;100366.09;5077658;28;8828;-61
2023/06/04 05:39:06;;;;;;;;;4.00;4.00;;;;;12.11;48.65;100362.44;5077945;28;8945;-60
2023/06/04 05:41:34;;;;;;;;;4.50;4.00;;;;;12.29;48.08;100355.63;5077567;28;8835;-60
2023/06/04 05:44:01;;;;;;;;;1.50;1.50;;;;;12.47;48.48;100364.84;5077868;28;8824;-62
2023/06/04 05:46:29;;;;;;;;;3.00;3.00;;;;;12.65;48.13;100366.03;5077162;28;8851;-60
2023/06/04 05:48:57;;;;;;;;;3.75;3.75;;;;;12.78;47.79;100364.06;5077346;28;8836;-59
2023/06/04 05:51:25;;;;;;;;;5.50;5.50;;;;;12.91;47.51;100360.25;5086576;28;8829;-60
2023/06/04 05:53:53;;;;;;;;;3.00;3.00;;;;;13.05;48.04;100361.84;5097131;28;8810;-60
2023/06/04 05:56:21;;;;;;;;;5.00;5.00;;;;;13.20;47.30;100360.56;5097217;28;8903;-62
2023/06/04 05:58:49;;;;;;;;;1.00;1.00;;;;;13.36;47.24;100359.13;5097675;28;8861;-60
2023/06/04 06:01:17;;;;;;;;;3.25;3.00;;;;;13.51;47.42;100367.69;5097224;28;8826;-62
2023/06/04 06:03:45;;;;;;;;;6.25;6.00;;;;;13.64;47.28;100363.84;5097348;28;8972;-60
2023/06/04 06:06:13;;;;;;;;;3.50;3.00;;;;;13.78;47.08;100368.00;5096937;28;8826;-60
2023/06/04 06:08:40;;;;;;;;;4.00;3.25;;;;;13.90;46.81;100367.78;5097142;28;8822;-61
2023/06/04 06:11:08;;;;;;;;;4.00;4.00;;;;;14.05;46.98;100368.31;5097033;28;8822;-61
2023/06/04 06:13:38;;;;;;;;;3.75;3.75;;;;;14.19;46.91;100367.97;5097188;28;8818;-62
2023/06/04 06:16:06;;;;;;;;;4.00;4.00;;;;;14.32;46.64;100364.09;5097009;28;9650;-61
2023/06/04 06:18:33;;;;;;;;;3.00;3.00;;;;;14.47;46.26;100367.22;5096477;28;8832;-60
2023/06/04 06:21:01;;;;;;;;;5.00;4.00;;;;;14.62;46.62;100373.91;5096227;28;8822;-60
2023/06/04 06:23:30;;;;;;;;;4.00;3.50;;;;;14.77;45.86;100375.19;5095375;28;8842;-59
2023/06/04 06:25:58;;;;;;;;;5.50;5.50;;;;;14.86;45.86;100374.41;5095270;28;8860;-61
2023/06/04 06:28:26;;;;;;;;;5.50;5.00;;;;;14.94;46.09;100382.59;5095752;28;9507;-60
2023/06/04 06:30:54;;;;;;;;;6.00;6.00;;;;;15.00;46.37;100372.16;5095744;28;9006;-60
2023/06/04 06:33:23;;;;;;;;;4.50;4.00;;;;;15.09;45.90;100375.84;5095946;28;8861;-61
2023/06/04 06:35:51;;;;;;;;;4.50;4.00;;;;;15.18;45.55;100385.72;5096034;28;8833;-60
2023/06/04 06:38:18;;;;;;;;;3.25;3.25;;;;;15.28;46.04;100386.56;5096298;28;8960;-61
2023/06/04 06:40:46;;;;;;;;;5.00;5.00;;;;;15.36;46.04;100384.06;5096523;28;8890;-61
2023/06/04 06:43:15;;;;;;;;;6.00;6.00;;;;;15.48;45.44;100391.81;5097192;28;8927;-60
2023/06/04 06:45:43;;;;;;;;;5.75;4.50;;;;;15.58;45.60;100389.13;5095738;28;8806;-62
2023/06/04 06:48:10;;;;;;;;;6.25;4.50;;;;;15.67;45.41;100390.97;5096135;28;8812;-61
2023/06/04 06:50:38;;;;;;;;;4.00;4.00;;;;;15.77;44.82;100395.31;5095946;28;8833;-62
2023/06/04 06:53:06;;;;;;;;;4.00;4.00;;;;;15.92;45.12;100398.44;5096206;28;8899;-61
2023/06/04 06:55:34;;;;;;;;;3.25;3.25;;;;;16.04;45.35;100399.94;5095853;28;8834;-59
2023/06/04 06:58:01;;;;;;;;;9.00;6.00;;;;;16.12;44.98;100392.84;5095439;28;8795;-62
2023/06/04 07:00:29;;;;;;;;;3.25;3.00;;;;;16.22;44.73;100393.66;5096627;28;9508;-60
2023/06/04 07:02:57;;;;;;;;;5.50;5.50;;;;;16.33;44.78;100391.63;5096280;28;8866;-62
2023/06/04 07:05:25;;;;;;;;;3.00;1.50;;;;;16.43;44.70;100389.81;5095636;28;8822;-60
2023/06/04 07:07:56;;;;;;;;;6.00;5.50;;;;;16.54;44.54;100386.91;5096034;28;9472;-59
2023/06/04 07:10:24;;;;;;;;;4.00;4.00;;;;;16.64;44.26;100386.88;5096008;28;8834;-61
2023/06/04 07:12:52;;;;;;;;;4.00;4.00;;;;;16.76;44.65;100386.50;5095895;28;8933;-60
2023/06/04 07:15:20;;;;;;;;;4.00;4.00;;;;;16.86;44.75;100384.59;5096077;28;8976;-61
2023/06/04 07:17:48;;;;;;;;;4.00;4.00;;;;;16.98;44.38;100386.09;5096569;28;8830;-60
2023/06/04 07:20:16;;;;;;;;;6.75;4.00;;;;;17.09;43.87;100390.41;5096427;28;8862;-62
2023/06/04 07:22:43;;;;;;;;;4.50;4.00;;;;;17.16;43.87;100391.50;5095755;28;8952;-60
2023/06/04 07:25:11;;;;;;;;;3.75;3.50;;;;;17.25;44.02;100387.88;5095329;28;8844;-60
2023/06/04 07:27:39;;;;;;;;;3.50;3.25;;;;;17.36;43.50;100388.53;5075534;28;8828;-62
2023/06/04 07:30:08;;;;;;;;;4.00;4.00;;;;;17.49;43.44;100390.84;5075276;28;8967;-62
2023/06/04 07:32:36;;;;;;;;;2.00;2.00;;;;;17.61;43.57;100390.44;5074603;28;8871;-60
2023/06/04 07:35:04;;;;;;;;;4.80;4.80;;;;;17.70;43.11;100386.81;5074402;28;8917;-61
2023/06/04 07:37:31;;;;;;;;;6.00;4.50;;;;;17.79;43.38;100388.59;5074348;28;8855;-62
2023/06/04 07:39:59;;;;;;;;;3.60;3.00;;;;;17.88;43.56;100390.31;5074261;28;8836;-60
2023/06/04 07:42:27;;;;;;;;;4.00;4.00;;;;;17.97;43.62;100389.38;5074433;28;8950;-61
2023/06/04 07:44:55;;;;;;;;;4.00;4.00;;;;;18.05;43.31;100385.88;5075252;28;8831;-60
2023/06/04 07:47:23;;;;;;;;;5.60;4.00;;;;;18.14;43.13;100387.63;5074525;28;8898;-61
2023/06/04 07:49:51;;;;;;;;;1.00;1.00;;;;;18.20;43.35;100384.28;5088591;28;8822;-59
2023/06/04 07:52:32;;;;;;;;;4.00;4.00;;;;;18.28;43.00;100389.75;5095234;28;8841;-60
2023/06/04 07:55:04;;;;;;;;;6.00;5.60;;;;;18.38;43.25;100393.19;5098799;28;8911;-61
2023/06/04 07:57:34;;;;;;;;;3.00;3.00;;;;;18.50;43.11;100390.06;5098625;28;8852;-61
2023/06/04 08:00:05;;;;;;;;;4.40;4.40;;;;;18.58;42.82;100386.56;5101447;28;8854;-59
2023/06/04 08:02:36;;;;;;;;;3.40;3.40;;;;;18.71;42.87;100393.19;5101862;28;8846;-59
2023/06/04 08:05:09;;;;;;;;;6.00;6.00;;;;;18.84;42.00;100396.28;5101578;28;8840;-59
2023/06/04 08:07:41;;;;;;;;;2.80;2.80;;;;;18.95;42.29;100395.13;5101789;28;8838;-59
2023/06/04 08:10:13;;;;;;;;;4.40;4.40;;;;;19.08;42.36;100390.97;5101729;28;8854;-61
2023/06/04 08:12:45;;;;;;;;;3.60;3.60;;;;;19.18;42.57;100386.25;5101393;28;8826;-60
2023/06/04 08:15:19;;;;;;;;;3.80;3.60;;;;;19.33;41.94;100389.16;5101141;28;8907;-62
2023/06/04 08:17:50;;;;;;;;;4.60;4.00;;;;;19.44;41.95;100378.03;5100530;28;8834;-59
2023/06/04 08:20:22;;;;;;;;;7.00;5.00;;;;;19.58;41.75;100383.63;5098636;28;8830;-60
2023/06/04 08:22:54;;;;;;;;;2.80;2.40;;;;;19.67;41.78;100385.31;5098310;28;8914;-60
2023/06/04 08:25:24;;;;;;;;;5.20;5.20;;;;;19.76;41.23;100381.59;5097955;28;8844;-61
2023/06/04 08:27:53;;;;;;;;;5.00;4.40;;;;;19.88;41.52;100380.22;5097439;28;8845;-60
2023/06/04 08:30:21;;;;;;;;;5.40;4.00;;;;;20.02;41.17;100384.13;5096582;28;8830;-61
2023/06/04 08:32:50;;;;;;;;;4.00;4.00;;;;;20.12;41.21;100382.94;5097767;28;8876;-62
2023/06/04 08:35:18;;;;;;;;;7.00;6.20;;;;;20.25;40.68;100383.25;5098562;28;8822;-60
2023/06/04 08:37:46;;;;;;;;;6.60;5.40;;;;;20.36;41.12;100391.00;5097063;28;8888;-61
2023/06/04 08:40:14;;;;;;;;;3.40;3.20;;;;;20.47;40.85;100382.50;5096713;28;8960;-61
2023/06/04 08:42:42;;;;;;;;;4.80;4.80;;;;;20.63;40.15;100384.31;5097063;28;8849;-61
2023/06/04 08:45:10;;;;;;;;;7.00;5.00;;;;;20.75;40.55;100386.47;5097997;28;8823;-60
2023/06/04 08:47:38;;;;;;;;;5.00;5.00;;;;;20.83;40.04;100378.31;5097243;28;8826;-60
2023/06/04 08:50:06;;;;;;;;;7.40;7.00;;;;;20.93;40.02;100376.25;5097860;28;8907;-60
2023/06/04 08:52:35;;;;;;;;;7.00;6.60;;;;;21.03;39.97;100380.41;5098211;28;8971;-60
2023/06/04 08:55:02;;;;;;;;;6.20;6.20;;;;;21.16;39.82;100385.25;5097941;28;8899;-60
2023/06/04 08:57:30;;;;;;;;;6.00;6.00;;;;;21.25;39.38;100385.03;5098151;28;8853;-60
2023/06/04 08:59:58;;;;;;;;;7.60;7.60;;;;;21.37;39.78;100383.59;5098125;28;8853;-60
2023/06/04 09:02:27;;;;;;;;;6.60;5.40;;;;;21.48;39.17;100385.06;5077646;28;8845;-62
2023/06/04 09:04:55;;;;;;;;;7.00;5.40;;;;;21.61;38.99;100377.13;5077978;28;9487;-60
2023/06/04 09:07:23;;;;;;;;;9.40;9.20;;;;;21.76;39.03;100372.63;5077526;28;8851;-61
2023/06/04 09:09:51;;;;;;;;;6.20;6.00;;;;;21.85;38.81;100377.00;5077034;28;8832;-61
2023/06/04 09:12:40;;;;;;;;;5.20;5.20;;;;;21.96;38.40;100379.25;5077212;28;8852;-60
2023/06/04 09:15:08;;;;;;;;;8.00;8.00;;;;;22.05;38.37;100383.56;5077064;28;8858;-61
2023/06/04 09:17:36;;;;;;;;;9.00;8.00;;;;;22.16;38.51;100385.84;5076355;28;8949;-60
2023/06/04 09:20:05;;;;;;;;;5.20;5.00;;;;;22.29;38.60;100388.72;5083533;28;8833;-61
2023/06/04 09:22:33;;;;;;;;;6.40;6.00;;;;;22.42;38.16;100389.81;5106274;28;8837;-61
2023/06/04 09:25:01;;;;;;;;;6.80;6.00;;;;;22.53;37.82;100383.09;5095556;28;8903;-60
2023/06/04 09:27:29;;;;;;;;;6.00;5.00;;;;;22.59;37.83;100385.88;5095138;28;8811;-60
2023/06/04 09:29:57;;;;;;;;;7.60;7.60;;;;;22.66;38.16;100388.69;5094627;28;8966;-60
2023/06/04 09:32:26;;;;;;;;;6.80;6.80;;;;;22.73;37.61;100387.75;5095326;28;8831;-61
2023/06/04 09:34:54;;;;;;;;;8.40;8.00;;;;;22.82;37.50;100394.75;5096274;28;8835;-61
2023/06/04 09:37:23;;;;;;;;;6.00;6.00;;;;;22.92;37.21;100386.31;5096420;28;8953;-61
2023/06/04 09:39:50;;;;;;;;;5.00;5.00;;;;;22.99;37.25;100392.69;5095796;28;8814;-59
2023/06/04 09:42:18;;;;;;;;;6.00;6.00;;;;;22.97;37.77;100383.84;5096747;28;8860;-60
2023/06/04 09:44:51;;;;;;;;;7.80;7.60;;;;;23.04;37.23;100377.50;5097042;28;8846;-61
2023/06/04 09:47:19;;;;;;;;;7.20;6.00;;;;;23.19;37.12;100382.91;5096692;28;8938;-62
2023/06/04 09:49:47;;;;;;;;;6.00;6.00;;;;;23.33;37.55;100387.47;5097550;28;8838;-60
2023/06/04 09:52:15;;;;;;;;;5.40;5.40;;;;;23.42;37.33;100384.44;5096759;28;8822;-60
2023/06/04 09:54:43;;;;;;;;;7.80;7.20;;;;;23.59;36.70;100387.75;5097155;28;8842;-61
2023/06/04 09:57:11;;;;;;;;;7.20;6.40;;;;;23.81;36.59;100397.59;5096678;28;8930;-61
2023/06/04 09:59:38;;;;;;;;;5.20;5.00;;;;;24.10;35.63;100387.41;5095980;28;9508;-61
2023/06/04 10:02:07;;;;;;;;;6.60;5.80;;;;;24.36;35.24;100389.47;5095139;28;8822;-60
2023/06/04 10:04:35;;;;;;;;;6.00;5.40;;;;;24.54;35.62;100387.91;5095770;28;8842;-60
2023/06/04 10:07:03;;;;;;;;;5.00;5.00;;;;;24.80;34.82;100373.63;5095971;28;8834;-60
2023/06/04 10:09:31;;;;;;;;;6.80;6.60;;;;;25.10;34.91;100377.72;5096428;28;8837;-60
2023/06/04 10:12:01;;;;;;;;;7.00;6.60;;;;;25.41;34.52;100381.63;5095479;28;8846;-60
2023/06/04 10:14:30;;;;;;;;;5.00;5.00;;;;;25.68;33.68;100369.72;5095649;28;8845;-61
2023/06/04 10:16:58;;;;;;;;;7.00;6.00;;;;;25.97;33.64;100366.59;5095105;28;8899;-60
2023/06/04 10:19:27;;;;;;;;;7.60;7.40;;;;;26.27;33.55;100362.38;5094688;28;8798;-61
2023/06/04 10:21:55;;;;;;;;;7.00;7.00;;;;;26.55;32.58;100361.09;5093772;28;8814;-60
2023/06/04 10:24:26;;;;;;;;;7.60;7.00;;;;;26.92;32.83;100365.78;5094380;28;8826;-60
2023/06/04 10:26:54;;;;;;;;;5.20;5.20;;;;;27.34;32.40;100376.16;5095102;28;8818;-60
2023/06/04 10:29:22;;;;;;;;;6.00;6.00;;;;;27.65;32.55;100372.56;5093723;28;8829;-61
2023/06/04 10:31:50;;;;;;;;;7.80;6.00;;;;;27.95;32.24;100359.94;5094247;28;8833;-60
2023/06/04 10:34:18;;;;;;;;;8.00;7.40;;;;;28.24;31.48;100357.38;5093423;28;8863;-60
2023/06/04 10:36:46;;;;;;;;;8.80;8.00;;;;;28.51;31.03;100363.44;5094472;28;8830;-62
2023/06/04 10:39:14;;;;;;;;;4.80;4.80;;;;;28.75;30.88;100357.06;5094562;28;9642;-60
2023/06/04 10:41:43;;;;;;;;;4.40;4.40;;;;;28.97;30.96;100356.38;5094632;28;8818;-61
2023/06/04 10:44:12;;;;;;;;;4.40;4.40;;;;;29.19;30.62;100356.72;5095510;28;9855;-60
2023/06/04 10:46:41;;;;;;;;;5.20;5.00;;;;;29.42;30.73;100354.06;5093780;28;8824;-61
2023/06/04 10:49:09;;;;;;;;;5.00;4.60;;;;;29.51;29.98;100350.78;5094615;28;8846;-61
2023/06/04 10:51:38;;;;;;;;;5.60;5.40;;;;;29.62;30.10;100355.47;5093647;28;8810;-61
2023/06/04 10:54:06;;;;;;;;;5.40;4.60;;;;;29.69;30.04;100352.63;5094406;28;9527;-59
2023/06/04 10:56:34;;;;;;;;;5.60;4.20;;;;;29.80;29.70;100358.13;5094344;28;8903;-59
2023/06/04 10:59:02;;;;;;;;;6.00;5.00;;;;;29.93;29.90;100355.19;5089805;28;8822;-60
2023/06/04 11:01:31;;;;;;;;;4.00;4.00;;;;;30.17;29.65;100353.34;5093129;28;8893;-60
2023/06/04 11:03:59;;;;;;;;;5.00;4.60;;;;;30.36;29.36;100350.22;5095314;28;9020;-58
2023/06/04 11:06:27;;;;;;;;;3.40;3.00;;;;;30.54;29.35;100355.56;5094755;28;9495;-60
2023/06/04 11:08:55;;;;;;;;;6.00;5.00;;;;;30.72;28.99;100347.19;5095137;28;8970;-61
2023/06/04 11:11:23;;;;;;;;;4.80;4.80;;;;;30.91;29.02;100352.31;5093021;28;8814;-61
2023/06/04 11:13:51;;;;;;;;;4.40;4.00;;;;;31.18;28.85;100349.88;5092859;28;8833;-61
2023/06/04 11:16:19;;;;;;;;;5.00;4.00;;;;;31.36;28.61;100345.00;5092567;28;8939;-59
2023/06/04 11:18:47;;;;;;;;;3.80;3.40;;;;;31.57;28.31;100344.28;5093604;28;8910;-59
2023/06/04 11:21:15;;;;;;;;;4.00;4.00;;;;;31.83;27.75;100349.19;5094324;28;8818;-60
2023/06/04 11:23:43;;;;;;;;;3.40;3.40;;;;;32.00;28.03;100344.50;5093310;28;8830;-58
2023/06/04 11:26:11;;;;;;;;;4.20;4.20;;;;;31.96;27.79;100337.84;5093820;28;8825;-60
2023/06/04 11:28:40;;;;;;;;;3.00;3.00;;;;;31.99;28.32;100337.34;5094705;28;9492;-59
2023/06/04 11:31:08;;;;;;;;;1.20;1.20;;;;;32.00;27.84;100340.91;5094831;28;8826;-59
2023/06/04 11:33:36;;;;;;;;;3.20;2.80;;;;;32.12;27.84;100333.41;5097020;28;8827;-60
2023/06/04 11:36:04;;;;;;;;;3.60;3.00;;;;;32.29;28.01;100337.00;5097437;28;8869;-58
2023/06/04 11:38:32;;;;;;;;;4.00;4.00;;;;;32.46;27.38;100340.59;5097617;28;8833;-58
2023/06/04 11:41:00;;;;;;;;;4.00;3.00;;;;;32.57;27.40;100340.47;5097235;28;8902;-58